Time;durP1;ratioP1;P1;durP2;ratioP2;P2;SDS_P1;SDS_P2;PMS_P1;PMS_P2;Temp;Humidity;BMP_temperature;BMP_pressure;BME280_temperature;BME280_humidity;BME280_pressure;Samples;Min_cycle;Max_cycle;Signal;HPM_P1;HPM_P2
2023/10/27 00:02:09;;;;;;;8.30;2.10;;;16.20;78.60;;;;;;5052944;28;20017;-75
2023/10/27 00:04:36;;;;;;;11.60;1.75;;;16.20;77.30;;;;;;5052854;28;20431;-76
2023/10/27 00:07:04;;;;;;;12.68;2.22;;;16.20;76.80;;;;;;5037183;28;20022;-74
2023/10/27 00:09:34;;;;;;;10.63;1.80;;;16.20;77.20;;;;;;5032910;28;20030;-75
2023/10/27 00:12:02;;;;;;;8.77;2.05;;;16.20;75.70;;;;;;5032666;28;20075;-75
2023/10/27 00:14:29;;;;;;;12.38;2.42;;;16.20;76.00;;;;;;5032881;28;20033;-75
2023/10/27 00:16:58;;;;;;;6.15;1.60;;;16.20;75.60;;;;;;5032919;28;20112;-76
2023/10/27 00:19:25;;;;;;;11.68;1.83;;;16.30;75.90;;;;;;5032761;28;20540;-75
2023/10/27 00:21:53;;;;;;;10.23;1.73;;;16.20;74.60;;;;;;5031750;28;20361;-75
2023/10/27 00:24:21;;;;;;;9.93;1.70;;;16.20;74.80;;;;;;5032789;28;20080;-75
2023/10/27 00:26:48;;;;;;;12.27;1.90;;;16.20;74.90;;;;;;5032732;28;20029;-75
2023/10/27 00:29:15;;;;;;;14.95;1.80;;;16.20;74.80;;;;;;5032520;28;20025;-75
2023/10/27 00:31:43;;;;;;;7.97;1.48;;;16.20;75.20;;;;;;5032685;28;20125;-74
2023/10/27 00:34:10;;;;;;;6.72;1.67;;;16.20;75.40;;;;;;5032686;28;20121;-75
2023/10/27 00:36:37;;;;;;;6.30;1.73;;;16.30;75.80;;;;;;5032849;28;20033;-76
2023/10/27 00:39:05;;;;;;;10.98;2.33;;;16.30;76.00;;;;;;5032429;28;20499;-74
2023/10/27 00:41:33;;;;;;;6.60;1.88;;;16.40;75.70;;;;;;5032458;28;20045;-75
2023/10/27 00:44:00;;;;;;;8.95;1.48;;;16.60;75.30;;;;;;5032395;28;20548;-75
2023/10/27 00:46:28;;;;;;;6.72;1.73;;;16.60;74.30;;;;;;5031369;28;20030;-75
2023/10/27 00:48:56;;;;;;;9.68;1.63;;;16.70;74.10;;;;;;5032529;28;20091;-75
2023/10/27 00:51:24;;;;;;;13.38;1.92;;;16.90;74.80;;;;;;5032272;28;20029;-75
2023/10/27 00:53:52;;;;;;;7.22;1.73;;;16.90;73.90;;;;;;5032419;28;20041;-75
2023/10/27 00:56:20;;;;;;;8.15;1.65;;;17.00;75.00;;;;;;5032632;28;20026;-75
2023/10/27 00:58:48;;;;;;;11.75;2.88;;;17.00;76.80;;;;;;5032395;28;20021;-76
2023/10/27 01:01:17;;;;;;;12.15;2.20;;;16.90;76.40;;;;;;5032250;28;20075;-76
2023/10/27 01:03:45;;;;;;;8.82;1.90;;;17.00;77.10;;;;;;5032651;28;20087;-78
2023/10/27 01:06:12;;;;;;;10.10;2.42;;;17.00;76.50;;;;;;5032506;28;20029;-76
2023/10/27 01:08:40;;;;;;;11.45;1.90;;;17.00;76.50;;;;;;5032580;28;20111;-86
2023/10/27 01:11:08;;;;;;;8.45;1.73;;;17.00;76.00;;;;;;5032198;28;20053;-77
2023/10/27 01:13:36;;;;;;;12.32;1.80;;;17.10;76.30;;;;;;5032298;28;20063;-76
2023/10/27 01:16:04;;;;;;;8.07;2.33;;;17.20;75.30;;;;;;5032368;28;20484;-76
2023/10/27 01:18:31;;;;;;;6.50;1.52;;;17.40;73.60;;;;;;5032276;28;20634;-75
2023/10/27 01:20:58;;;;;;;16.05;2.67;;;17.70;73.20;;;;;;5032361;28;20022;-76
2023/10/27 01:23:26;;;;;;;7.43;1.73;;;17.90;72.10;;;;;;5033634;28;20025;-75
2023/10/27 01:25:54;;;;;;;11.18;1.75;;;18.20;70.80;;;;;;5035888;28;20423;-78
2023/10/27 01:28:21;;;;;;;10.57;2.10;;;18.30;69.50;;;;;;5035900;28;20056;-76
2023/10/27 01:30:49;;;;;;;7.38;1.88;;;18.40;67.40;;;;;;5036168;28;20095;-77
2023/10/27 01:33:16;;;;;;;13.63;2.30;;;18.40;67.40;;;;;;5035778;28;20128;-76
2023/10/27 01:35:43;;;;;;;10.93;2.42;;;18.40;67.90;;;;;;5036039;28;20056;-75
2023/10/27 01:38:11;;;;;;;14.40;2.15;;;18.30;67.90;;;;;;5036094;28;20040;-83
2023/10/27 01:40:38;;;;;;;12.80;2.28;;;18.10;68.30;;;;;;5040304;28;20034;-75
2023/10/27 01:43:05;;;;;;;13.48;2.58;;;17.90;69.90;;;;;;5041202;28;20123;-76
2023/10/27 01:45:34;;;;;;;10.70;2.00;;;17.90;70.10;;;;;;5039279;28;20030;-75
2023/10/27 01:48:02;;;;;;;7.63;1.80;;;17.80;70.70;;;;;;5051337;28;20416;-78
2023/10/27 01:50:30;;;;;;;9.38;1.65;;;17.80;69.80;;;;;;5036954;28;20025;-83
2023/10/27 01:52:57;;;;;;;11.40;1.92;;;17.90;68.50;;;;;;5037093;28;20036;-77
2023/10/27 01:55:25;;;;;;;3.72;1.27;;;18.10;66.60;;;;;;5035800;28;20029;-83
2023/10/27 01:57:53;;;;;;;13.07;1.50;;;18.30;65.20;;;;;;5036273;28;20096;-79
2023/10/27 02:00:20;;;;;;;9.95;1.30;;;18.40;64.10;;;;;;5036321;28;20033;-79
2023/10/27 02:02:48;;;;;;;6.47;1.65;;;18.60;64.20;;;;;;5038974;28;20021;-82
2023/10/27 02:05:20;;;;;;;6.70;1.48;;;18.70;63.10;;;;;;5037285;28;20032;-84
2023/10/27 02:07:47;;;;;;;6.13;1.55;;;18.70;62.60;;;;;;5054421;28;20088;-78
2023/10/27 02:10:15;;;;;;;6.88;1.70;;;18.50;61.70;;;;;;5057051;28;20489;-80
2023/10/27 02:12:45;;;;;;;8.32;1.92;;;18.40;61.00;;;;;;5056849;28;20069;-79
2023/10/27 02:15:13;;;;;;;7.68;1.25;;;18.40;60.50;;;;;;5058718;28;20494;-85
2023/10/27 02:17:43;;;;;;;4.97;1.83;;;18.50;59.50;;;;;;5060233;28;20033;-83
2023/10/27 02:20:21;;;;;;;5.10;1.77;;;18.60;58.50;;;;;;5060304;28;20017;-85
2023/10/27 02:22:49;;;;;;;4.13;1.23;;;18.70;58.60;;;;;;5059346;28;20040;-80
2023/10/27 02:25:16;;;;;;;5.30;1.20;;;18.80;58.40;;;;;;5056316;28;20057;-79
2023/10/27 02:27:44;;;;;;;7.45;1.40;;;18.90;58.20;;;;;;5055966;28;20033;-78
2023/10/27 02:30:11;;;;;;;9.20;1.50;;;19.10;58.30;;;;;;5055809;28;20096;-85
2023/10/27 02:32:39;;;;;;;7.80;1.52;;;19.10;57.70;;;;;;5055921;28;20063;-78
2023/10/27 02:35:07;;;;;;;6.50;1.30;;;19.20;56.50;;;;;;5055237;28;20090;-80
2023/10/27 02:37:34;;;;;;;5.32;1.10;;;19.20;57.50;;;;;;5054846;28;20109;-82
2023/10/27 02:40:01;;;;;;;2.88;1.00;;;19.20;56.60;;;;;;5054635;28;20045;-87
2023/10/27 02:42:29;;;;;;;5.25;1.30;;;19.20;55.00;;;;;;5055362;28;20108;-77
2023/10/27 02:44:56;;;;;;;6.30;1.20;;;19.20;55.30;;;;;;5055939;28;20454;-84
2023/10/27 02:47:23;;;;;;;3.72;1.20;;;19.20;55.20;;;;;;5055754;28;20377;-85
2023/10/27 02:49:51;;;;;;;2.67;0.88;;;19.30;53.90;;;;;;5055302;28;20535;-84
2023/10/27 02:52:18;;;;;;;5.28;1.45;;;19.30;54.80;;;;;;5054615;28;20142;-85
2023/10/27 02:54:45;;;;;;;5.18;1.30;;;19.50;53.90;;;;;;5054359;28;20488;-79
2023/10/27 02:57:13;;;;;;;7.88;1.30;;;19.50;52.90;;;;;;5054058;28;20426;-77
2023/10/27 02:59:40;;;;;;;4.35;1.25;;;19.60;53.30;;;;;;5054112;28;20063;-81
2023/10/27 03:02:08;;;;;;;8.98;1.25;;;19.60;51.70;;;;;;5054089;28;20021;-79
2023/10/27 03:04:36;;;;;;;7.30;1.60;;;19.70;51.00;;;;;;5054206;28;20150;-81
2023/10/27 03:07:03;;;;;;;9.32;1.70;;;19.70;53.20;;;;;;5054541;28;20384;-76
2023/10/27 03:09:31;;;;;;;9.52;2.10;;;19.70;54.40;;;;;;5055198;28;20025;-78
2023/10/27 03:12:01;;;;;;;9.00;1.70;;;19.70;54.30;;;;;;5055198;28;20025;-85
2023/10/27 03:14:28;;;;;;;7.72;1.83;;;19.70;55.10;;;;;;5053859;28;20033;-79
2023/10/27 03:16:56;;;;;;;8.73;1.63;;;19.70;54.70;;;;;;5054008;28;20158;-84
2023/10/27 03:19:23;;;;;;;9.63;1.60;;;19.80;54.70;;;;;;5055909;28;20079;-79
2023/10/27 03:21:54;;;;;;;5.72;1.42;;;19.80;55.10;;;;;;5054835;28;20031;-83
2023/10/27 03:24:22;;;;;;;4.70;1.30;;;19.80;53.70;;;;;;5054839;28;20437;-85
2023/10/27 03:26:50;;;;;;;6.30;1.35;;;19.70;53.80;;;;;;5054125;28;20060;-84
2023/10/27 03:29:18;;;;;;;4.03;1.00;;;19.70;53.10;;;;;;5053691;28;20465;-82
2023/10/27 03:31:45;;;;;;;4.90;1.33;;;19.70;53.40;;;;;;5054371;28;20082;-83
2023/10/27 03:34:12;;;;;;;5.25;1.58;;;19.80;53.10;;;;;;5053835;28;20072;-84
2023/10/27 03:36:40;;;;;;;4.38;1.02;;;19.70;53.10;;;;;;5053588;28;20061;-78
2023/10/27 03:39:07;;;;;;;4.40;1.17;;;19.70;53.80;;;;;;5053335;28;20460;-83
2023/10/27 03:41:34;;;;;;;6.30;1.50;;;19.80;54.10;;;;;;5053269;28;20053;-79
2023/10/27 03:44:02;;;;;;;5.22;1.67;;;19.90;53.20;;;;;;5053397;28;20041;-81
2023/10/27 03:46:29;;;;;;;2.65;0.90;;;20.00;53.40;;;;;;5053675;28;20472;-81
2023/10/27 03:48:58;;;;;;;2.85;1.08;;;19.90;51.80;;;;;;5054584;28;20108;-82
2023/10/27 03:51:25;;;;;;;2.42;0.68;;;19.90;51.10;;;;;;5054100;28;20040;-82
2023/10/27 03:53:54;;;;;;;6.45;1.30;;;19.90;50.90;;;;;;5054055;28;20037;-80
2023/10/27 03:56:22;;;;;;;5.60;1.33;;;19.80;51.70;;;;;;5053740;28;20029;-84
2023/10/27 03:58:49;;;;;;;2.95;0.80;;;19.70;51.30;;;;;;5053559;28;20384;-80
2023/10/27 04:01:17;;;;;;;3.20;1.02;;;19.60;49.80;;;;;;5052965;28;20025;-84
2023/10/27 04:03:44;;;;;;;4.55;1.10;;;19.60;50.20;;;;;;5054903;28;20021;-85
2023/10/27 04:06:12;;;;;;;4.85;1.13;;;19.60;51.10;;;;;;5052336;28;20108;-89
2023/10/27 04:08:39;;;;;;;6.07;1.27;;;19.60;51.30;;;;;;5034931;28;20025;-81
2023/10/27 04:11:07;;;;;;;7.15;1.55;;;19.60;52.10;;;;;;5033928;28;20025;-83
2023/10/27 04:13:34;;;;;;;7.25;1.30;;;19.60;52.90;;;;;;5033571;28;20029;-86
2023/10/27 04:16:02;;;;;;;10.88;1.70;;;19.50;53.30;;;;;;5033455;28;20056;-82
2023/10/27 04:18:29;;;;;;;4.88;1.30;;;19.60;54.40;;;;;;5033498;28;20072;-85
2023/10/27 04:20:57;;;;;;;6.95;1.30;;;19.50;55.20;;;;;;5033562;28;20079;-77
2023/10/27 04:23:24;;;;;;;7.85;1.77;;;19.30;57.00;;;;;;5032924;28;20030;-82
2023/10/27 04:25:52;;;;;;;11.75;2.00;;;19.20;61.50;;;;;;5032842;28;20540;-83
2023/10/27 04:28:19;;;;;;;12.18;2.50;;;18.80;64.70;;;;;;5033164;28;20053;-85
2023/10/27 04:30:46;;;;;;;12.88;2.03;;;18.50;66.80;;;;;;5033036;28;20084;-83
2023/10/27 04:33:15;;;;;;;14.15;2.17;;;18.20;68.20;;;;;;5033147;28;20056;-84
2023/10/27 04:35:43;;;;;;;9.15;1.80;;;17.90;68.80;;;;;;5033612;28;20037;-83
2023/10/27 04:38:10;;;;;;;5.25;1.20;;;17.80;70.10;;;;;;5033462;28;20082;-80
2023/10/27 04:40:38;;;;;;;10.80;1.50;;;17.70;70.20;;;;;;5033205;28;20054;-81
2023/10/27 04:43:05;;;;;;;6.40;1.75;;;17.60;70.90;;;;;;5033455;28;20049;-79
2023/10/27 04:45:32;;;;;;;9.05;1.60;;;17.50;71.00;;;;;;5034239;28;20025;-83
2023/10/27 04:48:00;;;;;;;10.57;1.80;;;17.50;71.80;;;;;;5036060;28;20033;-81
2023/10/27 04:50:27;;;;;;;8.15;1.70;;;17.50;72.20;;;;;;5035018;28;20144;-82
2023/10/27 04:52:55;;;;;;;9.95;1.83;;;17.60;72.70;;;;;;5034685;28;20029;-79
2023/10/27 04:55:22;;;;;;;6.90;1.15;;;17.70;73.40;;;;;;5033648;28;20091;-77
2023/10/27 04:57:49;;;;;;;4.03;1.35;;;17.80;72.50;;;;;;5034919;28;20384;-80
2023/10/27 05:00:17;;;;;;;7.13;1.20;;;17.70;70.60;;;;;;5037018;28;20056;-79
2023/10/27 05:02:44;;;;;;;6.82;1.55;;;17.60;70.00;;;;;;5036463;28;20030;-79
2023/10/27 05:05:12;;;;;;;6.70;1.40;;;17.50;69.80;;;;;;5036522;28;20029;-81
2023/10/27 05:07:39;;;;;;;7.88;1.27;;;17.50;69.40;;;;;;5036756;28;20033;-79
2023/10/27 05:10:10;;;;;;;6.18;1.50;;;17.50;69.60;;;;;;5036660;28;20048;-77
2023/10/27 05:12:37;;;;;;;8.45;1.58;;;17.70;70.50;;;;;;5036133;28;20021;-80
2023/10/27 05:15:05;;;;;;;8.80;1.20;;;17.80;70.40;;;;;;5036126;28;20044;-82
2023/10/27 05:17:36;;;;;;;5.53;1.25;;;17.90;69.70;;;;;;5036158;28;20022;-85
2023/10/27 05:20:05;;;;;;;4.88;1.35;;;18.20;69.10;;;;;;5036392;28;20021;-80
2023/10/27 05:22:33;;;;;;;12.68;1.30;;;18.20;67.50;;;;;;5036784;28;20022;-79
2023/10/27 05:25:04;;;;;;;6.35;1.35;;;18.20;67.70;;;;;;5036223;28;20538;-83
2023/10/27 05:27:32;;;;;;;6.13;1.40;;;18.30;67.60;;;;;;5035963;28;20034;-81
2023/10/27 05:30:00;;;;;;;6.32;1.20;;;18.20;66.80;;;;;;5036368;28;20026;-79
2023/10/27 05:32:27;;;;;;;7.32;1.10;;;18.20;67.30;;;;;;5035979;28;20044;-76
2023/10/27 05:34:55;;;;;;;7.53;1.23;;;18.10;65.80;;;;;;5053178;28;20499;-81
2023/10/27 05:37:22;;;;;;;6.70;1.20;;;18.10;65.70;;;;;;5055675;28;20025;-83
2023/10/27 05:39:49;;;;;;;6.63;1.23;;;18.00;63.90;;;;;;5055805;28;20112;-82
2023/10/27 05:42:17;;;;;;;3.45;1.02;;;18.10;63.70;;;;;;5055731;28;20025;-81
2023/10/27 05:44:44;;;;;;;3.10;1.00;;;18.10;62.00;;;;;;5071107;28;20392;-85
2023/10/27 05:47:12;;;;;;;5.15;1.02;;;18.20;61.00;;;;;;5054155;28;20025;-85
2023/10/27 05:49:39;;;;;;;4.35;1.10;;;18.20;59.70;;;;;;5055727;28;20044;-85
2023/10/27 05:52:06;;;;;;;1.88;0.50;;;18.20;58.20;;;;;;5055849;28;20056;-86
2023/10/27 05:54:34;;;;;;;3.88;1.38;;;18.20;58.20;;;;;;5055676;28;20029;-84
2023/10/27 05:57:02;;;;;;;4.63;1.20;;;18.20;59.00;;;;;;5055482;28;20464;-82
2023/10/27 05:59:30;;;;;;;5.53;1.17;;;18.40;59.40;;;;;;5055679;28;20072;-84
2023/10/27 06:01:58;;;;;;;4.38;1.10;;;18.60;59.80;;;;;;5055504;28;20526;-83
2023/10/27 06:04:25;;;;;;;5.00;1.13;;;18.70;59.60;;;;;;5055606;28;20017;-79
2023/10/27 06:06:52;;;;;;;6.68;1.27;;;18.80;59.20;;;;;;5055500;28;20116;-83
2023/10/27 06:09:20;;;;;;;11.15;1.30;;;18.80;60.30;;;;;;5058683;28;20020;-81
2023/10/27 06:11:47;;;;;;;4.32;1.10;;;18.80;59.20;;;;;;5055802;28;20055;-82
2023/10/27 06:14:15;;;;;;;8.60;1.75;;;18.70;59.80;;;;;;5055290;28;20065;-83
2023/10/27 06:16:42;;;;;;;6.72;1.20;;;18.50;60.30;;;;;;5055321;28;20021;-81
2023/10/27 06:19:09;;;;;;;3.78;0.90;;;18.40;60.10;;;;;;5054944;28;20476;-79
2023/10/27 06:21:37;;;;;;;7.22;1.23;;;18.30;61.10;;;;;;5054889;28;20472;-75
2023/10/27 06:24:04;;;;;;;5.35;1.00;;;18.20;60.90;;;;;;5053688;28;20071;-81
2023/10/27 06:26:32;;;;;;;7.00;1.13;;;18.20;60.50;;;;;;5054681;28;20029;-83
2023/10/27 06:28:59;;;;;;;5.78;1.10;;;18.20;60.50;;;;;;5054799;28;20377;-86
2023/10/27 06:31:27;;;;;;;4.72;1.20;;;18.20;58.70;;;;;;5054741;28;20358;-82
2023/10/27 06:33:54;;;;;;;5.35;1.20;;;18.30;58.50;;;;;;5054719;28;20037;-82
2023/10/27 06:36:21;;;;;;;4.63;0.77;;;18.40;58.00;;;;;;5054832;28;20511;-81
2023/10/27 06:38:49;;;;;;;3.03;0.95;;;18.50;57.70;;;;;;5054576;28;20091;-83
2023/10/27 06:41:16;;;;;;;5.20;1.00;;;18.40;57.30;;;;;;5054278;28;20373;-83
2023/10/27 06:43:44;;;;;;;2.60;0.60;;;18.50;56.60;;;;;;5054633;28;20032;-83
2023/10/27 06:46:11;;;;;;;3.40;0.80;;;18.60;55.30;;;;;;5054687;28;20451;-80
2023/10/27 06:48:38;;;;;;;5.50;1.05;;;18.50;54.50;;;;;;5054505;28;20027;-77
2023/10/27 06:51:06;;;;;;;8.13;1.30;;;18.40;55.20;;;;;;5054285;28;20555;-82
2023/10/27 06:53:33;;;;;;;5.40;1.42;;;18.60;56.70;;;;;;5054364;28;20033;-84
2023/10/27 06:56:01;;;;;;;3.33;0.90;;;18.70;56.80;;;;;;5054444;28;20372;-83
2023/10/27 06:58:28;;;;;;;6.72;1.20;;;18.70;54.80;;;;;;5054343;28;20391;-80
2023/10/27 07:00:56;;;;;;;4.57;1.20;;;18.60;55.90;;;;;;5054434;28;20021;-75
2023/10/27 07:03:24;;;;;;;5.43;1.20;;;18.50;55.40;;;;;;5053939;28;20083;-79
2023/10/27 07:05:51;;;;;;;6.82;1.25;;;18.50;56.60;;;;;;5054303;28;20023;-84
2023/10/27 07:08:18;;;;;;;8.50;1.52;;;18.50;57.40;;;;;;5054437;28;20029;-79
2023/10/27 07:10:47;;;;;;;4.90;1.20;;;18.40;57.90;;;;;;5054028;28;20033;-76
2023/10/27 07:13:14;;;;;;;8.80;1.35;;;18.30;58.30;;;;;;5053765;28;20476;-79
2023/10/27 07:15:41;;;;;;;7.80;1.30;;;18.30;58.50;;;;;;5054105;28;20029;-81
2023/10/27 07:18:09;;;;;;;5.85;1.30;;;18.20;58.70;;;;;;5054339;28;20028;-85
2023/10/27 07:20:39;;;;;;;3.20;1.23;;;18.00;57.70;;;;;;5053399;28;20070;-82
2023/10/27 07:23:07;;;;;;;6.53;1.20;;;18.00;57.00;;;;;;5053661;28;20028;-82
2023/10/27 07:25:34;;;;;;;6.47;1.00;;;17.90;58.00;;;;;;5053997;28;20025;-78
2023/10/27 07:28:01;;;;;;;5.43;1.15;;;17.80;57.60;;;;;;5053673;28;20120;-82
2023/10/27 07:30:30;;;;;;;5.50;0.85;;;17.60;57.90;;;;;;5054167;28;20029;-76
2023/10/27 07:32:58;;;;;;;3.17;0.73;;;17.50;57.50;;;;;;5053242;28;20059;-84
2023/10/27 07:35:25;;;;;;;3.45;1.05;;;17.40;58.00;;;;;;5033712;28;20025;-83
2023/10/27 07:37:53;;;;;;;4.10;1.15;;;17.30;58.70;;;;;;5049104;28;20022;-79
2023/10/27 07:40:20;;;;;;;3.60;0.90;;;17.30;59.10;;;;;;5033578;28;20056;-81
2023/10/27 07:42:48;;;;;;;6.10;1.10;;;17.20;59.00;;;;;;5033699;28;20389;-81
2023/10/27 07:45:15;;;;;;;2.42;0.93;;;17.20;59.30;;;;;;5033637;28;20026;-84
2023/10/27 07:47:43;;;;;;;6.57;1.20;;;17.20;59.70;;;;;;5033804;28;20029;-83
2023/10/27 07:50:13;;;;;;;4.60;1.33;;;17.20;59.90;;;;;;5033588;28;20476;-84
2023/10/27 07:52:41;;;;;;;8.48;1.40;;;17.20;59.90;;;;;;5033720;28;20032;-83
2023/10/27 07:55:08;;;;;;;4.20;1.17;;;17.10;59.90;;;;;;5033102;28;20029;-81
2023/10/27 07:57:36;;;;;;;6.07;2.03;;;17.10;60.40;;;;;;5032334;28;20403;-84
2023/10/27 08:00:04;;;;;;;9.48;1.20;;;17.10;60.60;;;;;;5033480;28;20022;-79
2023/10/27 08:02:33;;;;;;;8.93;1.20;;;17.00;61.10;;;;;;5033453;28;20075;-77
2023/10/27 08:05:01;;;;;;;8.63;2.22;;;17.00;61.50;;;;;;5033225;28;20112;-79
2023/10/27 08:07:30;;;;;;;3.30;1.00;;;16.90;61.40;;;;;;5033100;28;20024;-82
2023/10/27 08:09:57;;;;;;;6.30;1.50;;;17.00;61.80;;;;;;5032836;28;20059;-79
2023/10/27 08:12:24;;;;;;;8.07;1.65;;;16.90;61.90;;;;;;5048277;28;20022;-81
2023/10/27 08:14:52;;;;;;;10.02;1.60;;;16.90;62.00;;;;;;5033134;28;20033;-79
2023/10/27 08:17:19;;;;;;;8.02;1.58;;;16.90;62.30;;;;;;5032735;28;20464;-82
2023/10/27 08:19:46;;;;;;;7.80;1.80;;;16.90;62.50;;;;;;5033131;28;20377;-82
2023/10/27 08:22:14;;;;;;;11.82;1.98;;;16.80;62.60;;;;;;5033176;28;20480;-79
2023/10/27 08:24:41;;;;;;;4.22;1.33;;;16.90;62.50;;;;;;5033099;28;20017;-77
2023/10/27 08:27:08;;;;;;;7.15;1.23;;;16.80;62.50;;;;;;5032804;28;20030;-82
2023/10/27 08:29:37;;;;;;;9.35;1.85;;;16.80;62.30;;;;;;5048165;28;20108;-77
2023/10/27 08:32:05;;;;;;;7.85;1.38;;;16.80;61.60;;;;;;5033069;28;20037;-79
2023/10/27 08:34:33;;;;;;;6.00;1.95;;;16.80;61.70;;;;;;5032943;28;20396;-83
2023/10/27 08:37:00;;;;;;;7.22;1.45;;;16.70;61.20;;;;;;5031736;28;20021;-79
2023/10/27 08:39:28;;;;;;;6.43;1.50;;;16.70;61.70;;;;;;5033020;28;20087;-82
2023/10/27 08:41:55;;;;;;;10.75;2.22;;;16.70;61.40;;;;;;5032998;28;20109;-83
2023/10/27 08:44:22;;;;;;;7.70;1.77;;;16.70;61.50;;;;;;5032885;28;20022;-83
2023/10/27 08:46:51;;;;;;;4.78;1.15;;;16.70;62.40;;;;;;5032827;28;20144;-78
2023/10/27 08:49:18;;;;;;;5.88;1.23;;;16.70;62.20;;;;;;5031578;28;20549;-81
2023/10/27 08:51:46;;;;;;;7.93;1.50;;;16.70;62.30;;;;;;5033034;28;20384;-80
2023/10/27 08:54:13;;;;;;;6.13;1.63;;;16.70;62.80;;;;;;5033028;28;20068;-82
2023/10/27 08:56:40;;;;;;;10.18;1.50;;;16.70;62.70;;;;;;5033177;28;20037;-81
2023/10/27 08:59:11;;;;;;;11.30;1.75;;;16.70;62.40;;;;;;5033003;28;20029;-76
2023/10/27 09:01:41;;;;;;;5.40;1.60;;;16.70;62.60;;;;;;5033102;28;20044;-79
2023/10/27 09:04:13;;;;;;;10.55;1.33;;;16.70;63.00;;;;;;5047918;28;20067;-82
2023/10/27 09:06:42;;;;;;;5.43;1.48;;;16.60;62.60;;;;;;5032753;28;20025;-81
2023/10/27 09:09:10;;;;;;;11.65;1.73;;;16.60;63.00;;;;;;5032743;28;20022;-84
2023/10/27 09:11:47;;;;;;;6.00;1.35;;;16.60;63.50;;;;;;5033997;28;20021;-82
2023/10/27 09:14:32;;;;;;;7.38;1.73;;;16.50;64.20;;;;;;5032850;28;20548;-80
2023/10/27 09:17:10;;;;;;;8.25;1.77;;;16.60;64.30;;;;;;5032893;28;20104;-83
2023/10/27 09:19:39;;;;;;;8.75;1.58;;;16.50;64.60;;;;;;5032483;28;20025;-83
2023/10/27 09:22:20;;;;;;;13.40;1.70;;;16.50;64.60;;;;;;5032353;28;20025;-83
2023/10/27 09:24:50;;;;;;;6.35;1.80;;;16.50;64.60;;;;;;5032001;28;20085;-82
2023/10/27 09:27:27;;;;;;;11.43;1.58;;;16.50;64.60;;;;;;5032389;28;20022;-83
2023/10/27 09:29:54;;;;;;;5.32;1.58;;;16.50;64.90;;;;;;5032162;28;20037;-81
2023/10/27 09:32:26;;;;;;;5.07;1.52;;;16.50;64.90;;;;;;5032153;28;20026;-83
2023/10/27 09:35:13;;;;;;;8.45;1.75;;;16.40;64.80;;;;;;5042557;28;20098;-79
2023/10/27 09:37:41;;;;;;;7.45;1.80;;;16.40;64.80;;;;;;5052576;28;20025;-80
2023/10/27 09:40:11;;;;;;;4.82;1.33;;;16.40;64.60;;;;;;5051858;28;20041;-80
2023/10/27 09:42:43;;;;;;;6.53;1.25;;;16.30;63.80;;;;;;5052361;28;20013;-81
2023/10/27 09:45:16;;;;;;;9.18;2.38;;;16.30;63.50;;;;;;5056167;28;20108;-80
2023/10/27 09:47:47;;;;;;;7.43;1.45;;;16.30;63.50;;;;;;5056259;28;20040;-82
2023/10/27 09:50:19;;;;;;;3.78;1.40;;;16.20;62.80;;;;;;5055013;28;20033;-78
2023/10/27 09:52:48;;;;;;;8.95;1.30;;;16.20;62.80;;;;;;5056631;28;20112;-83
2023/10/27 09:55:19;;;;;;;7.13;1.52;;;16.20;62.70;;;;;;5055855;28;20025;-82
2023/10/27 09:57:51;;;;;;;7.68;1.60;;;16.20;63.40;;;;;;5056525;28;20017;-81
2023/10/27 10:00:29;;;;;;;7.53;1.75;;;16.20;63.90;;;;;;5055495;28;20434;-83
2023/10/27 10:02:59;;;;;;;5.53;1.38;;;16.20;64.30;;;;;;5055618;28;20021;-83
2023/10/27 10:05:27;;;;;;;3.80;1.10;;;16.20;64.30;;;;;;5056096;28;20052;-80
2023/10/27 10:08:06;;;;;;;5.65;1.27;;;16.20;64.60;;;;;;5055725;28;20048;-80
2023/10/27 10:10:34;;;;;;;8.25;1.55;;;16.20;64.10;;;;;;5055745;28;20021;-82
2023/10/27 10:13:12;;;;;;;4.63;1.13;;;16.20;63.70;;;;;;5054478;28;20036;-82
2023/10/27 10:15:47;;;;;;;6.38;1.38;;;16.20;63.50;;;;;;5055586;28;20029;-81
2023/10/27 10:18:26;;;;;;;4.95;1.38;;;16.20;63.20;;;;;;5044135;28;20112;-80
2023/10/27 10:20:58;;;;;;;6.28;1.48;;;16.20;63.70;;;;;;5035261;28;20017;-81
2023/10/27 10:23:51;;;;;;;8.13;1.73;;;16.20;63.40;;;;;;5035217;28;20032;-78
2023/10/27 10:26:20;;;;;;;7.35;1.73;;;16.20;62.80;;;;;;5035125;28;20057;-81
2023/10/27 10:28:49;;;;;;;4.97;1.33;;;16.10;62.50;;;;;;5034982;28;20067;-81
2023/10/27 10:31:21;;;;;;;5.20;1.20;;;16.10;63.00;;;;;;5036196;28;20025;-80
2023/10/27 10:34:12;;;;;;;5.20;1.02;;;16.10;62.40;;;;;;5038145;28;20049;-84
2023/10/27 10:36:40;;;;;;;4.57;0.85;;;16.10;62.00;;;;;;5035842;28;20072;-82
2023/10/27 10:39:10;;;;;;;3.80;0.88;;;16.00;61.80;;;;;;5034409;28;20420;-82
2023/10/27 10:41:53;;;;;;;2.70;0.70;;;16.10;61.90;;;;;;5034489;28;20435;-82
2023/10/27 10:44:21;;;;;;;4.85;1.33;;;16.10;62.60;;;;;;5037826;28;20025;-82
2023/10/27 10:46:49;;;;;;;4.30;0.98;;;16.10;62.50;;;;;;5035546;28;20026;-77
2023/10/27 10:49:27;;;;;;;5.85;2.00;;;16.10;62.30;;;;;;5034576;28;20029;-81
2023/10/27 10:51:55;;;;;;;2.97;0.90;;;16.10;62.80;;;;;;5034723;28;20033;-77
2023/10/27 10:54:31;;;;;;;4.85;1.23;;;16.10;62.20;;;;;;5033959;28;20045;-77
2023/10/27 10:57:11;;;;;;;2.35;0.90;;;16.10;62.00;;;;;;5034477;28;20022;-79
2023/10/27 10:59:55;;;;;;;8.35;1.15;;;16.10;62.40;;;;;;5035197;28;20461;-82
2023/10/27 11:02:32;;;;;;;2.22;1.00;;;16.10;63.00;;;;;;5034828;28;20028;-81
2023/10/27 11:05:00;;;;;;;6.35;1.60;;;16.10;63.10;;;;;;5034374;28;20096;-82
2023/10/27 11:07:28;;;;;;;3.97;1.10;;;16.20;62.20;;;;;;5034735;28;20013;-82
2023/10/27 11:10:19;;;;;;;4.60;1.30;;;16.10;61.90;;;;;;5045441;28;20051;-82
2023/10/27 11:12:46;;;;;;;10.18;2.05;;;16.10;61.90;;;;;;5054005;28;20033;-83
2023/10/27 11:15:40;;;;;;;5.40;1.05;;;16.10;61.10;;;;;;5054255;28;20113;-82
2023/10/27 11:18:12;;;;;;;4.07;1.13;;;16.10;61.10;;;;;;5053756;28;20428;-79
2023/10/27 11:20:40;;;;;;;5.28;1.75;;;16.10;61.00;;;;;;5052503;28;20052;-80
2023/10/27 11:23:15;;;;;;;4.93;1.40;;;16.20;61.40;;;;;;5053475;28;20024;-79
2023/10/27 11:25:44;;;;;;;4.45;1.40;;;16.20;60.80;;;;;;5052138;28;20099;-81
2023/10/27 11:28:23;;;;;;;8.07;1.30;;;16.20;61.90;;;;;;5053601;28;20040;-81
2023/10/27 11:31:10;;;;;;;7.30;1.63;;;16.10;60.10;;;;;;5053536;28;20025;-79
2023/10/27 11:34:01;;;;;;;3.50;0.90;;;16.10;60.20;;;;;;5053966;28;20039;-76
2023/10/27 11:36:38;;;;;;;4.32;1.48;;;16.20;61.20;;;;;;5053495;28;20025;-75
2023/10/27 11:39:18;;;;;;;7.05;1.00;;;16.20;62.20;;;;;;5052996;28;20023;-76
2023/10/27 11:42:01;;;;;;;7.60;1.13;;;16.20;62.00;;;;;;5053212;28;20049;-77
2023/10/27 11:44:35;;;;;;;6.32;1.80;;;16.20;60.90;;;;;;5053288;28;20133;-75
2023/10/27 11:47:03;;;;;;;2.28;0.70;;;16.20;62.80;;;;;;5053156;28;20094;-76
2023/10/27 11:49:32;;;;;;;5.13;1.33;;;16.20;62.10;;;;;;5053231;28;20413;-76
2023/10/27 11:52:00;;;;;;;5.35;1.25;;;16.10;61.90;;;;;;5053226;28;20043;-76
2023/10/27 11:54:28;;;;;;;2.88;1.02;;;16.10;61.90;;;;;;5053013;28;20029;-75
2023/10/27 11:56:56;;;;;;;5.63;1.40;;;16.10;61.90;;;;;;5053112;28;20423;-77
2023/10/27 11:59:26;;;;;;;9.05;2.08;;;16.10;62.50;;;;;;5052867;28;20029;-79
2023/10/27 12:01:54;;;;;;;7.22;1.35;;;16.10;62.10;;;;;;5052998;28;20021;-78
2023/10/27 12:04:21;;;;;;;3.08;0.95;;;16.10;63.00;;;;;;5052953;28;20028;-76
2023/10/27 12:06:52;;;;;;;4.68;1.27;;;16.10;62.30;;;;;;5052629;28;20017;-76
2023/10/27 12:09:20;;;;;;;4.85;1.45;;;16.00;62.80;;;;;;5052592;28;20021;-77
2023/10/27 12:11:47;;;;;;;2.50;1.13;;;16.00;62.80;;;;;;5068177;28;20380;-77
2023/10/27 12:14:15;;;;;;;6.25;1.20;;;16.00;62.90;;;;;;5052822;28;20480;-82
2023/10/27 12:16:42;;;;;;;6.63;1.20;;;16.00;61.20;;;;;;5052755;28;20037;-76
2023/10/27 12:19:13;;;;;;;6.05;1.23;;;16.00;61.00;;;;;;5052771;28;20028;-77
2023/10/27 12:21:40;;;;;;;6.03;0.90;;;16.00;59.40;;;;;;5046916;28;20108;-76
2023/10/27 12:24:08;;;;;;;6.47;1.13;;;16.00;58.60;;;;;;5052526;28;20104;-76
2023/10/27 12:26:36;;;;;;;7.30;1.08;;;16.00;58.90;;;;;;5052617;28;20533;-76
2023/10/27 12:29:04;;;;;;;5.18;1.00;;;16.00;59.10;;;;;;5052678;28;20499;-75
2023/10/27 12:31:32;;;;;;;5.57;1.13;;;16.00;57.70;;;;;;5052610;28;20469;-75
2023/10/27 12:33:59;;;;;;;4.40;1.05;;;16.00;58.30;;;;;;5052380;28;20062;-75
2023/10/27 12:36:26;;;;;;;2.70;0.90;;;16.00;57.50;;;;;;5052464;28;20044;-76
2023/10/27 12:38:54;;;;;;;1.73;0.63;;;16.00;56.30;;;;;;5052537;28;20425;-77
2023/10/27 12:41:21;;;;;;;5.05;0.90;;;16.00;57.40;;;;;;5052228;28;20060;-82
2023/10/27 12:43:48;;;;;;;3.63;1.05;;;16.00;58.30;;;;;;5052628;28;20028;-83
2023/10/27 12:46:17;;;;;;;4.40;0.90;;;16.00;58.30;;;;;;5052586;28;20366;-76
2023/10/27 12:48:44;;;;;;;3.78;0.80;;;16.00;58.40;;;;;;5052503;28;20038;-76
2023/10/27 12:51:12;;;;;;;3.25;0.80;;;16.00;56.80;;;;;;5052244;28;20021;-76
2023/10/27 12:53:39;;;;;;;2.92;0.80;;;16.00;55.70;;;;;;5052243;28;20040;-80
2023/10/27 12:56:08;;;;;;;5.82;1.27;;;15.90;56.40;;;;;;5052409;28;20021;-76